sensor_id;sensor_type;location;lat;lon;timestamp;temperature;humidity
76291;DHT22;65100;46.884;17.410;2023-04-24T00:01:13;14.05;66.04
76291;DHT22;65100;46.884;17.410;2023-04-24T00:03:38;13.96;66.01
76291;DHT22;65100;46.884;17.410;2023-04-24T00:06:05;13.86;67.30
76291;DHT22;65100;46.884;17.410;2023-04-24T00:08:33;13.75;66.81
76291;DHT22;65100;46.884;17.410;2023-04-24T00:10:59;13.80;66.99
76291;DHT22;65100;46.884;17.410;2023-04-24T00:13:25;13.65;67.38
76291;DHT22;65100;46.884;17.410;2023-04-24T00:15:51;13.66;67.83
76291;DHT22;65100;46.884;17.410;2023-04-24T00:18:16;13.63;68.51
76291;DHT22;65100;46.884;17.410;2023-04-24T00:20:42;13.73;67.31
76291;DHT22;65100;46.884;17.410;2023-04-24T00:23:09;13.86;67.43
76291;DHT22;65100;46.884;17.410;2023-04-24T00:25:34;14.02;67.39
76291;DHT22;65100;46.884;17.410;2023-04-24T00:28:00;14.05;66.72
76291;DHT22;65100;46.884;17.410;2023-04-24T00:30:25;13.95;67.06
76291;DHT22;65100;46.884;17.410;2023-04-24T00:32:51;13.89;68.35
76291;DHT22;65100;46.884;17.410;2023-04-24T00:35:16;13.80;67.98
76291;DHT22;65100;46.884;17.410;2023-04-24T00:37:42;13.82;69.46
76291;DHT22;65100;46.884;17.410;2023-04-24T00:40:07;13.72;70.79
76291;DHT22;65100;46.884;17.410;2023-04-24T00:42:33;13.62;70.86
76291;DHT22;65100;46.884;17.410;2023-04-24T00:45:00;13.55;71.68
76291;DHT22;65100;46.884;17.410;2023-04-24T00:47:26;13.41;70.55
76291;DHT22;65100;46.884;17.410;2023-04-24T00:49:52;13.35;72.65
76291;DHT22;65100;46.884;17.410;2023-04-24T00:52:17;13.39;71.99
76291;DHT22;65100;46.884;17.410;2023-04-24T00:54:46;13.42;68.88
76291;DHT22;65100;46.884;17.410;2023-04-24T00:57:13;13.75;66.99
76291;DHT22;65100;46.884;17.410;2023-04-24T00:59:41;13.79;67.55
76291;DHT22;65100;46.884;17.410;2023-04-24T01:02:07;13.86;69.26
76291;DHT22;65100;46.884;17.410;2023-04-24T01:04:34;14.03;66.62
76291;DHT22;65100;46.884;17.410;2023-04-24T01:07:00;14.12;66.68
76291;DHT22;65100;46.884;17.410;2023-04-24T01:09:26;14.36;64.28
76291;DHT22;65100;46.884;17.410;2023-04-24T01:11:52;14.44;64.16
76291;DHT22;65100;46.884;17.410;2023-04-24T01:14:18;14.47;64.13
76291;DHT22;65100;46.884;17.410;2023-04-24T01:16:43;14.60;64.04
76291;DHT22;65100;46.884;17.410;2023-04-24T01:19:10;14.50;64.80
76291;DHT22;65100;46.884;17.410;2023-04-24T01:21:37;14.57;66.68
76291;DHT22;65100;46.884;17.410;2023-04-24T01:24:03;14.48;67.63
76291;DHT22;65100;46.884;17.410;2023-04-24T01:26:50;14.36;66.73
76291;DHT22;65100;46.884;17.410;2023-04-24T01:29:15;14.20;67.18
76291;DHT22;65100;46.884;17.410;2023-04-24T01:31:41;14.24;68.17
76291;DHT22;65100;46.884;17.410;2023-04-24T01:34:07;14.03;68.71
76291;DHT22;65100;46.884;17.410;2023-04-24T01:36:34;13.96;69.10
76291;DHT22;65100;46.884;17.410;2023-04-24T01:39:00;14.06;67.34
76291;DHT22;65100;46.884;17.410;2023-04-24T01:41:26;14.14;67.67
76291;DHT22;65100;46.884;17.410;2023-04-24T01:43:52;14.13;67.95
76291;DHT22;65100;46.884;17.410;2023-04-24T01:46:17;14.23;66.67
76291;DHT22;65100;46.884;17.410;2023-04-24T01:48:45;14.31;68.35
76291;DHT22;65100;46.884;17.410;2023-04-24T01:51:11;14.33;67.26
76291;DHT22;65100;46.884;17.410;2023-04-24T01:53:36;14.40;65.57
76291;DHT22;65100;46.884;17.410;2023-04-24T01:56:02;14.59;64.92
76291;DHT22;65100;46.884;17.410;2023-04-24T01:58:28;14.59;65.40
76291;DHT22;65100;46.884;17.410;2023-04-24T02:00:56;14.41;66.48
76291;DHT22;65100;46.884;17.410;2023-04-24T02:03:22;14.47;66.28
76291;DHT22;65100;46.884;17.410;2023-04-24T02:05:47;14.50;66.06
76291;DHT22;65100;46.884;17.410;2023-04-24T02:08:13;14.48;66.50
76291;DHT22;65100;46.884;17.410;2023-04-24T02:10:38;14.47;66.29
76291;DHT22;65100;46.884;17.410;2023-04-24T02:13:03;14.40;66.40
76291;DHT22;65100;46.884;17.410;2023-04-24T02:15:29;14.40;66.22
76291;DHT22;65100;46.884;17.410;2023-04-24T02:17:55;14.37;66.61
76291;DHT22;65100;46.884;17.410;2023-04-24T02:20:21;14.44;66.60
76291;DHT22;65100;46.884;17.410;2023-04-24T02:22:46;14.48;65.84
76291;DHT22;65100;46.884;17.410;2023-04-24T02:25:12;14.36;66.60
76291;DHT22;65100;46.884;17.410;2023-04-24T02:27:37;14.45;66.07
76291;DHT22;65100;46.884;17.410;2023-04-24T02:30:03;14.48;66.31
76291;DHT22;65100;46.884;17.410;2023-04-24T02:32:28;14.50;66.30
76291;DHT22;65100;46.884;17.410;2023-04-24T02:34:54;14.60;66.42
76291;DHT22;65100;46.884;17.410;2023-04-24T02:37:19;14.61;66.45
76291;DHT22;65100;46.884;17.410;2023-04-24T02:39:45;14.61;65.19
76291;DHT22;65100;46.884;17.410;2023-04-24T02:42:10;14.54;65.47
76291;DHT22;65100;46.884;17.410;2023-04-24T02:44:35;14.61;65.62
76291;DHT22;65100;46.884;17.410;2023-04-24T02:47:01;14.57;65.26
76291;DHT22;65100;46.884;17.410;2023-04-24T02:49:26;14.57;65.54
76291;DHT22;65100;46.884;17.410;2023-04-24T02:51:52;14.63;65.44
76291;DHT22;65100;46.884;17.410;2023-04-24T02:54:17;14.67;65.01
76291;DHT22;65100;46.884;17.410;2023-04-24T02:56:43;14.56;65.37
76291;DHT22;65100;46.884;17.410;2023-04-24T02:59:08;14.57;65.20
76291;DHT22;65100;46.884;17.410;2023-04-24T03:01:34;14.61;64.96
76291;DHT22;65100;46.884;17.410;2023-04-24T03:03:59;14.60;65.06
76291;DHT22;65100;46.884;17.410;2023-04-24T03:06:25;14.60;65.52
76291;DHT22;65100;46.884;17.410;2023-04-24T03:08:52;14.56;63.73
76291;DHT22;65100;46.884;17.410;2023-04-24T03:11:17;14.70;64.51
76291;DHT22;65100;46.884;17.410;2023-04-24T03:13:43;14.73;64.77
76291;DHT22;65100;46.884;17.410;2023-04-24T03:16:08;14.77;63.82
76291;DHT22;65100;46.884;17.410;2023-04-24T03:18:34;14.74;65.51
76291;DHT22;65100;46.884;17.410;2023-04-24T03:21:00;14.65;64.19
76291;DHT22;65100;46.884;17.410;2023-04-24T03:23:26;14.70;64.14
76291;DHT22;65100;46.884;17.410;2023-04-24T03:25:51;14.77;64.54
76291;DHT22;65100;46.884;17.410;2023-04-24T03:28:17;14.83;64.39
76291;DHT22;65100;46.884;17.410;2023-04-24T03:30:42;14.87;63.49
76291;DHT22;65100;46.884;17.410;2023-04-24T03:33:08;14.83;62.97
76291;DHT22;65100;46.884;17.410;2023-04-24T03:35:34;14.88;63.13
76291;DHT22;65100;46.884;17.410;2023-04-24T03:38:01;14.85;62.87
76291;DHT22;65100;46.884;17.410;2023-04-24T03:40:27;14.75;62.74
76291;DHT22;65100;46.884;17.410;2023-04-24T03:42:54;14.71;63.59
76291;DHT22;65100;46.884;17.410;2023-04-24T03:45:20;14.77;63.11
76291;DHT22;65100;46.884;17.410;2023-04-24T03:47:45;14.78;63.84
76291;DHT22;65100;46.884;17.410;2023-04-24T03:50:11;14.71;63.77
76291;DHT22;65100;46.884;17.410;2023-04-24T03:52:36;14.75;63.65
76291;DHT22;65100;46.884;17.410;2023-04-24T03:55:02;14.71;63.73
76291;DHT22;65100;46.884;17.410;2023-04-24T03:57:27;14.87;64.40
76291;DHT22;65100;46.884;17.410;2023-04-24T03:59:53;14.78;64.27
76291;DHT22;65100;46.884;17.410;2023-04-24T04:02:19;14.73;65.02
76291;DHT22;65100;46.884;17.410;2023-04-24T04:04:44;14.71;64.43
76291;DHT22;65100;46.884;17.410;2023-04-24T04:07:10;14.68;63.82
76291;DHT22;65100;46.884;17.410;2023-04-24T04:09:36;14.68;65.18
76291;DHT22;65100;46.884;17.410;2023-04-24T04:12:01;14.67;65.51
76291;DHT22;65100;46.884;17.410;2023-04-24T04:14:27;14.56;65.78
76291;DHT22;65100;46.884;17.410;2023-04-24T04:16:53;14.48;65.41
76291;DHT22;65100;46.884;17.410;2023-04-24T04:19:18;14.48;66.08
76291;DHT22;65100;46.884;17.410;2023-04-24T04:21:43;14.50;66.12
76291;DHT22;65100;46.884;17.410;2023-04-24T04:24:11;14.56;66.48
76291;DHT22;65100;46.884;17.410;2023-04-24T04:26:37;14.47;66.38
76291;DHT22;65100;46.884;17.410;2023-04-24T04:29:03;14.40;65.94
76291;DHT22;65100;46.884;17.410;2023-04-24T04:31:29;14.30;65.83
76291;DHT22;65100;46.884;17.410;2023-04-24T04:33:55;14.40;66.57
76291;DHT22;65100;46.884;17.410;2023-04-24T04:36:20;14.41;65.83
76291;DHT22;65100;46.884;17.410;2023-04-24T04:38:46;14.53;66.21
76291;DHT22;65100;46.884;17.410;2023-04-24T04:41:11;14.53;66.14
76291;DHT22;65100;46.884;17.410;2023-04-24T04:43:37;14.50;67.70
76291;DHT22;65100;46.884;17.410;2023-04-24T04:46:05;14.38;66.77
76291;DHT22;65100;46.884;17.410;2023-04-24T04:48:30;14.45;66.93
76291;DHT22;65100;46.884;17.410;2023-04-24T04:50:57;14.51;66.53
76291;DHT22;65100;46.884;17.410;2023-04-24T04:53:23;14.59;66.88
76291;DHT22;65100;46.884;17.410;2023-04-24T04:55:48;14.59;66.73
76291;DHT22;65100;46.884;17.410;2023-04-24T04:58:14;14.70;65.62
76291;DHT22;65100;46.884;17.410;2023-04-24T05:00:39;14.70;66.10
76291;DHT22;65100;46.884;17.410;2023-04-24T05:03:05;14.77;64.96
76291;DHT22;65100;46.884;17.410;2023-04-24T05:05:30;14.81;65.35
76291;DHT22;65100;46.884;17.410;2023-04-24T05:07:56;14.74;65.64
76291;DHT22;65100;46.884;17.410;2023-04-24T05:10:21;14.75;65.36
76291;DHT22;65100;46.884;17.410;2023-04-24T05:12:46;14.85;65.39
76291;DHT22;65100;46.884;17.410;2023-04-24T05:15:12;14.80;65.55
76291;DHT22;65100;46.884;17.410;2023-04-24T05:17:37;14.74;65.06
76291;DHT22;65100;46.884;17.410;2023-04-24T05:20:05;14.57;66.12
76291;DHT22;65100;46.884;17.410;2023-04-24T05:22:31;14.61;65.81
76291;DHT22;65100;46.884;17.410;2023-04-24T05:24:57;14.60;66.32
76291;DHT22;65100;46.884;17.410;2023-04-24T05:27:22;14.64;65.73
76291;DHT22;65100;46.884;17.410;2023-04-24T05:29:48;14.67;66.16
76291;DHT22;65100;46.884;17.410;2023-04-24T05:32:13;14.81;65.26
76291;DHT22;65100;46.884;17.410;2023-04-24T05:34:39;14.65;66.54
76291;DHT22;65100;46.884;17.410;2023-04-24T05:37:04;14.71;66.09
76291;DHT22;65100;46.884;17.410;2023-04-24T05:39:33;14.81;66.04
76291;DHT22;65100;46.884;17.410;2023-04-24T05:41:59;14.83;66.50
76291;DHT22;65100;46.884;17.410;2023-04-24T05:44:26;14.85;66.04
76291;DHT22;65100;46.884;17.410;2023-04-24T05:46:52;14.70;67.18
76291;DHT22;65100;46.884;17.410;2023-04-24T05:49:17;14.81;66.72
76291;DHT22;65100;46.884;17.410;2023-04-24T05:51:43;14.88;66.68
76291;DHT22;65100;46.884;17.410;2023-04-24T05:54:08;14.91;65.94
76291;DHT22;65100;46.884;17.410;2023-04-24T05:56:34;14.92;66.59
76291;DHT22;65100;46.884;17.410;2023-04-24T05:58:59;15.05;66.00
76291;DHT22;65100;46.884;17.410;2023-04-24T06:01:25;15.12;66.11
76291;DHT22;65100;46.884;17.410;2023-04-24T06:03:50;15.35;65.17
76291;DHT22;65100;46.884;17.410;2023-04-24T06:06:16;15.32;65.75
76291;DHT22;65100;46.884;17.410;2023-04-24T06:08:41;15.21;65.68
76291;DHT22;65100;46.884;17.410;2023-04-24T06:11:09;15.02;66.87
76291;DHT22;65100;46.884;17.410;2023-04-24T06:13:35;15.14;66.67
76291;DHT22;65100;46.884;17.410;2023-04-24T06:16:00;15.12;65.97
76291;DHT22;65100;46.884;17.410;2023-04-24T06:18:26;15.14;66.29
76291;DHT22;65100;46.884;17.410;2023-04-24T06:20:52;15.22;66.02
76291;DHT22;65100;46.884;17.410;2023-04-24T06:23:17;15.32;66.65
76291;DHT22;65100;46.884;17.410;2023-04-24T06:25:43;15.43;64.20
76291;DHT22;65100;46.884;17.410;2023-04-24T06:28:08;15.46;65.55
76291;DHT22;65100;46.884;17.410;2023-04-24T06:30:39;15.56;65.28
76291;DHT22;65100;46.884;17.410;2023-04-24T06:33:06;15.58;64.75
76291;DHT22;65100;46.884;17.410;2023-04-24T06:35:31;15.62;64.54
76291;DHT22;65100;46.884;17.410;2023-04-24T06:37:57;15.65;65.99
76291;DHT22;65100;46.884;17.410;2023-04-24T06:40:22;15.78;63.25
76291;DHT22;65100;46.884;17.410;2023-04-24T06:42:48;15.67;63.54
76291;DHT22;65100;46.884;17.410;2023-04-24T06:45:13;15.46;66.02
76291;DHT22;65100;46.884;17.410;2023-04-24T06:47:39;15.78;65.66
76291;DHT22;65100;46.884;17.410;2023-04-24T06:50:05;15.70;63.88
76291;DHT22;65100;46.884;17.410;2023-04-24T06:52:31;15.70;63.48
76291;DHT22;65100;46.884;17.410;2023-04-24T06:55:00;15.66;63.93
76291;DHT22;65100;46.884;17.410;2023-04-24T06:57:27;15.73;63.94
76291;DHT22;65100;46.884;17.410;2023-04-24T06:59:52;15.61;66.65
76291;DHT22;65100;46.884;17.410;2023-04-24T07:02:18;15.72;65.31
76291;DHT22;65100;46.884;17.410;2023-04-24T07:04:43;15.75;64.79
76291;DHT22;65100;46.884;17.410;2023-04-24T07:07:09;15.81;64.56
76291;DHT22;65100;46.884;17.410;2023-04-24T07:09:38;15.73;65.29
76291;DHT22;65100;46.884;17.410;2023-04-24T07:12:06;15.73;64.73
76291;DHT22;65100;46.884;17.410;2023-04-24T07:14:32;15.78;65.16
76291;DHT22;65100;46.884;17.410;2023-04-24T07:16:58;15.70;65.58
76291;DHT22;65100;46.884;17.410;2023-04-24T07:19:23;15.70;66.05
76291;DHT22;65100;46.884;17.410;2023-04-24T07:21:49;15.79;66.34
76291;DHT22;65100;46.884;17.410;2023-04-24T07:24:15;15.73;66.61
76291;DHT22;65100;46.884;17.410;2023-04-24T07:26:40;15.79;66.90
76291;DHT22;65100;46.884;17.410;2023-04-24T07:29:07;15.83;64.70
76291;DHT22;65100;46.884;17.410;2023-04-24T07:31:32;15.67;66.52
76291;DHT22;65100;46.884;17.410;2023-04-24T07:33:58;15.73;66.87
76291;DHT22;65100;46.884;17.410;2023-04-24T07:36:24;15.75;66.28
76291;DHT22;65100;46.884;17.410;2023-04-24T07:38:51;15.75;64.90
76291;DHT22;65100;46.884;17.410;2023-04-24T07:41:16;15.90;66.36
76291;DHT22;65100;46.884;17.410;2023-04-24T07:43:42;15.90;67.43
76291;DHT22;65100;46.884;17.410;2023-04-24T07:46:08;16.02;66.74
76291;DHT22;65100;46.884;17.410;2023-04-24T07:48:34;16.13;66.24
76291;DHT22;65100;46.884;17.410;2023-04-24T07:50:59;16.41;65.64
76291;DHT22;65100;46.884;17.410;2023-04-24T07:53:24;16.56;63.35
76291;DHT22;65100;46.884;17.410;2023-04-24T07:55:50;16.80;62.65
76291;DHT22;65100;46.884;17.410;2023-04-24T07:58:16;17.08;60.03
76291;DHT22;65100;46.884;17.410;2023-04-24T08:00:41;17.28;61.30
76291;DHT22;65100;46.884;17.410;2023-04-24T08:03:06;17.48;59.52
76291;DHT22;65100;46.884;17.410;2023-04-24T08:05:33;17.86;60.79
76291;DHT22;65100;46.884;17.410;2023-04-24T08:07:59;18.07;59.31
76291;DHT22;65100;46.884;17.410;2023-04-24T08:10:25;17.79;59.95
76291;DHT22;65100;46.884;17.410;2023-04-24T08:12:51;17.55;58.81
76291;DHT22;65100;46.884;17.410;2023-04-24T08:15:17;17.73;57.52
76291;DHT22;65100;46.884;17.410;2023-04-24T08:17:43;17.79;57.48
76291;DHT22;65100;46.884;17.410;2023-04-24T08:20:10;17.81;58.33
76291;DHT22;65100;46.884;17.410;2023-04-24T08:22:42;17.93;58.58
76291;DHT22;65100;46.884;17.410;2023-04-24T08:25:09;18.02;59.34
76291;DHT22;65100;46.884;17.410;2023-04-24T08:27:35;18.05;58.19
76291;DHT22;65100;46.884;17.410;2023-04-24T08:30:02;18.19;57.97
76291;DHT22;65100;46.884;17.410;2023-04-24T08:32:28;18.34;60.08
76291;DHT22;65100;46.884;17.410;2023-04-24T08:34:55;18.47;57.78
76291;DHT22;65100;46.884;17.410;2023-04-24T08:37:22;18.36;61.46
76291;DHT22;65100;46.884;17.410;2023-04-24T08:39:47;18.57;56.98
76291;DHT22;65100;46.884;17.410;2023-04-24T08:42:14;18.64;55.62
76291;DHT22;65100;46.884;17.410;2023-04-24T08:44:40;18.80;54.99
76291;DHT22;65100;46.884;17.410;2023-04-24T08:47:07;18.83;56.54
76291;DHT22;65100;46.884;17.410;2023-04-24T08:49:33;19.04;55.96
76291;DHT22;65100;46.884;17.410;2023-04-24T08:52:00;19.01;55.29
76291;DHT22;65100;46.884;17.410;2023-04-24T08:54:25;19.15;55.27
76291;DHT22;65100;46.884;17.410;2023-04-24T08:56:53;19.18;55.15
76291;DHT22;65100;46.884;17.410;2023-04-24T08:59:21;19.34;56.36
76291;DHT22;65100;46.884;17.410;2023-04-24T09:01:48;19.10;55.07
76291;DHT22;65100;46.884;17.410;2023-04-24T09:08:00;19.05;59.13
76291;DHT22;65100;46.884;17.410;2023-04-24T09:11:00;18.97;59.12
76291;DHT22;65100;46.884;17.410;2023-04-24T09:13:28;18.91;57.80
76291;DHT22;65100;46.884;17.410;2023-04-24T09:15:53;18.80;58.02
76291;DHT22;65100;46.884;17.410;2023-04-24T09:18:19;18.71;58.27
76291;DHT22;65100;46.884;17.410;2023-04-24T09:21:06;18.73;59.05
76291;DHT22;65100;46.884;17.410;2023-04-24T09:23:32;18.87;57.56
76291;DHT22;65100;46.884;17.410;2023-04-24T09:26:18;18.83;58.65
76291;DHT22;65100;46.884;17.410;2023-04-24T09:29:07;18.80;58.52
76291;DHT22;65100;46.884;17.410;2023-04-24T09:31:33;18.61;59.46
76291;DHT22;65100;46.884;17.410;2023-04-24T09:34:02;18.81;59.46
76291;DHT22;65100;46.884;17.410;2023-04-24T09:36:33;18.68;58.49
76291;DHT22;65100;46.884;17.410;2023-04-24T09:39:00;18.49;56.00
76291;DHT22;65100;46.884;17.410;2023-04-24T09:41:27;18.32;58.24
76291;DHT22;65100;46.884;17.410;2023-04-24T09:43:56;18.46;61.98
76291;DHT22;65100;46.884;17.410;2023-04-24T09:46:29;18.44;60.37
76291;DHT22;65100;46.884;17.410;2023-04-24T09:48:56;18.43;57.72
76291;DHT22;65100;46.884;17.410;2023-04-24T09:51:35;18.17;57.68
76291;DHT22;65100;46.884;17.410;2023-04-24T09:54:18;18.17;58.70
76291;DHT22;65100;46.884;17.410;2023-04-24T09:56:46;18.16;58.32
76291;DHT22;65100;46.884;17.410;2023-04-24T09:59:13;18.03;58.66
76291;DHT22;65100;46.884;17.410;2023-04-24T10:01:39;18.13;57.94
76291;DHT22;65100;46.884;17.410;2023-04-24T10:04:15;18.19;57.31
76291;DHT22;65100;46.884;17.410;2023-04-24T10:06:42;18.26;58.34
76291;DHT22;65100;46.884;17.410;2023-04-24T10:09:08;18.14;57.49
76291;DHT22;65100;46.884;17.410;2023-04-24T10:11:36;18.10;57.26
76291;DHT22;65100;46.884;17.410;2023-04-24T10:14:05;18.25;59.08
76291;DHT22;65100;46.884;17.410;2023-04-24T10:16:31;18.49;58.46
76291;DHT22;65100;46.884;17.410;2023-04-24T10:18:59;18.54;59.69
76291;DHT22;65100;46.884;17.410;2023-04-24T10:21:26;18.56;59.02
76291;DHT22;65100;46.884;17.410;2023-04-24T10:23:52;18.26;57.55
76291;DHT22;65100;46.884;17.410;2023-04-24T10:26:19;18.39;59.34
76291;DHT22;65100;46.884;17.410;2023-04-24T10:28:45;18.56;60.01
76291;DHT22;65100;46.884;17.410;2023-04-24T10:31:12;18.56;58.81
76291;DHT22;65100;46.884;17.410;2023-04-24T10:33:43;18.61;57.33
76291;DHT22;65100;46.884;17.410;2023-04-24T10:36:12;18.49;57.96
76291;DHT22;65100;46.884;17.410;2023-04-24T10:38:40;18.56;58.08
76291;DHT22;65100;46.884;17.410;2023-04-24T10:41:11;18.44;57.08
76291;DHT22;65100;46.884;17.410;2023-04-24T10:43:41;18.47;58.26
76291;DHT22;65100;46.884;17.410;2023-04-24T10:46:08;18.39;58.68
76291;DHT22;65100;46.884;17.410;2023-04-24T10:48:35;18.50;57.69
76291;DHT22;65100;46.884;17.410;2023-04-24T10:51:01;18.57;59.01
76291;DHT22;65100;46.884;17.410;2023-04-24T10:53:29;18.43;58.57
76291;DHT22;65100;46.884;17.410;2023-04-24T10:56:06;18.59;59.18
76291;DHT22;65100;46.884;17.410;2023-04-24T10:58:40;18.74;59.26
76291;DHT22;65100;46.884;17.410;2023-04-24T11:01:08;18.70;59.00
76291;DHT22;65100;46.884;17.410;2023-04-24T11:03:34;18.88;59.24
76291;DHT22;65100;46.884;17.410;2023-04-24T11:06:08;18.95;57.06
76291;DHT22;65100;46.884;17.410;2023-04-24T11:08:44;18.68;57.42
76291;DHT22;65100;46.884;17.410;2023-04-24T11:11:14;18.54;58.11
76291;DHT22;65100;46.884;17.410;2023-04-24T11:16:28;18.71;58.10
76291;DHT22;65100;46.884;17.410;2023-04-24T11:19:23;18.71;59.14
76291;DHT22;65100;46.884;17.410;2023-04-24T11:22:03;18.60;59.62
76291;DHT22;65100;46.884;17.410;2023-04-24T11:27:19;18.70;59.84
76291;DHT22;65100;46.884;17.410;2023-04-24T11:29:59;18.20;61.59
76291;DHT22;65100;46.884;17.410;2023-04-24T11:37:26;17.83;64.79
76291;DHT22;65100;46.884;17.410;2023-04-24T11:39:57;17.87;65.90
76291;DHT22;65100;46.884;17.410;2023-04-24T11:42:23;17.76;66.78
76291;DHT22;65100;46.884;17.410;2023-04-24T11:44:51;17.95;65.22
76291;DHT22;65100;46.884;17.410;2023-04-24T11:47:16;18.10;64.87
76291;DHT22;65100;46.884;17.410;2023-04-24T11:49:42;18.33;63.44
76291;DHT22;65100;46.884;17.410;2023-04-24T11:52:08;18.46;63.20
76291;DHT22;65100;46.884;17.410;2023-04-24T11:54:33;18.37;63.48
76291;DHT22;65100;46.884;17.410;2023-04-24T11:56:59;18.39;63.25
76291;DHT22;65100;46.884;17.410;2023-04-24T11:59:25;18.47;62.27
76291;DHT22;65100;46.884;17.410;2023-04-24T12:01:50;18.39;62.47
76291;DHT22;65100;46.884;17.410;2023-04-24T12:04:17;18.43;62.19
76291;DHT22;65100;46.884;17.410;2023-04-24T12:07:08;18.36;61.82
76291;DHT22;65100;46.884;17.410;2023-04-24T12:09:45;18.27;61.81
76291;DHT22;65100;46.884;17.410;2023-04-24T12:12:15;18.13;61.76
76291;DHT22;65100;46.884;17.410;2023-04-24T12:14:48;18.07;62.21
76291;DHT22;65100;46.884;17.410;2023-04-24T12:17:15;17.93;61.76
76291;DHT22;65100;46.884;17.410;2023-04-24T12:19:50;17.93;61.08
76291;DHT22;65100;46.884;17.410;2023-04-24T12:22:16;17.81;61.83
76291;DHT22;65100;46.884;17.410;2023-04-24T12:27:29;17.48;60.51
76291;DHT22;65100;46.884;17.410;2023-04-24T12:29:59;17.43;59.52
76291;DHT22;65100;46.884;17.410;2023-04-24T12:32:25;17.52;58.95
76291;DHT22;65100;46.884;17.410;2023-04-24T12:34:51;17.19;59.57
76291;DHT22;65100;46.884;17.410;2023-04-24T12:37:17;17.17;60.10
76291;DHT22;65100;46.884;17.410;2023-04-24T12:42:30;17.21;59.70
76291;DHT22;65100;46.884;17.410;2023-04-24T12:45:05;17.27;60.77
76291;DHT22;65100;46.884;17.410;2023-04-24T12:47:33;17.25;63.17
76291;DHT22;65100;46.884;17.410;2023-04-24T12:49:59;17.32;63.44
76291;DHT22;65100;46.884;17.410;2023-04-24T12:52:25;17.35;64.83
76291;DHT22;65100;46.884;17.410;2023-04-24T12:54:56;17.35;67.04
76291;DHT22;65100;46.884;17.410;2023-04-24T12:57:23;17.08;69.32
76291;DHT22;65100;46.884;17.410;2023-04-24T12:59:49;16.85;71.69
76291;DHT22;65100;46.884;17.410;2023-04-24T13:02:15;16.65;72.59
76291;DHT22;65100;46.884;17.410;2023-04-24T13:04:45;16.57;73.86
76291;DHT22;65100;46.884;17.410;2023-04-24T13:07:12;16.39;74.86
76291;DHT22;65100;46.884;17.410;2023-04-24T13:09:38;16.37;75.67
76291;DHT22;65100;46.884;17.410;2023-04-24T13:12:03;16.26;76.89
76291;DHT22;65100;46.884;17.410;2023-04-24T13:14:31;16.20;77.29
76291;DHT22;65100;46.884;17.410;2023-04-24T13:16:56;16.16;77.81
76291;DHT22;65100;46.884;17.410;2023-04-24T13:19:24;16.12;77.03
76291;DHT22;65100;46.884;17.410;2023-04-24T13:21:51;16.14;75.57
76291;DHT22;65100;46.884;17.410;2023-04-24T13:24:16;16.10;75.84
76291;DHT22;65100;46.884;17.410;2023-04-24T13:26:42;16.12;76.46
76291;DHT22;65100;46.884;17.410;2023-04-24T13:29:08;16.10;75.71
76291;DHT22;65100;46.884;17.410;2023-04-24T13:31:33;16.07;75.48
76291;DHT22;65100;46.884;17.410;2023-04-24T13:33:59;16.02;76.28
76291;DHT22;65100;46.884;17.410;2023-04-24T13:36:24;15.99;76.44
76291;DHT22;65100;46.884;17.410;2023-04-24T13:38:50;15.95;76.40
76291;DHT22;65100;46.884;17.410;2023-04-24T13:41:16;15.86;76.49
76291;DHT22;65100;46.884;17.410;2023-04-24T13:43:41;15.82;76.55
76291;DHT22;65100;46.884;17.410;2023-04-24T13:46:08;15.83;77.07
76291;DHT22;65100;46.884;17.410;2023-04-24T13:48:34;15.75;77.08
76291;DHT22;65100;46.884;17.410;2023-04-24T13:50:59;15.67;78.37
76291;DHT22;65100;46.884;17.410;2023-04-24T13:53:25;15.69;78.66
76291;DHT22;65100;46.884;17.410;2023-04-24T13:55:50;15.70;78.41
76291;DHT22;65100;46.884;17.410;2023-04-24T13:58:16;15.56;74.64
76291;DHT22;65100;46.884;17.410;2023-04-24T14:00:42;15.34;72.92
76291;DHT22;65100;46.884;17.410;2023-04-24T14:03:07;15.22;73.27
76291;DHT22;65100;46.884;17.410;2023-04-24T14:05:32;15.01;72.55
76291;DHT22;65100;46.884;17.410;2023-04-24T14:07:58;14.89;73.28
76291;DHT22;65100;46.884;17.410;2023-04-24T14:10:24;14.83;73.64
76291;DHT22;65100;46.884;17.410;2023-04-24T14:12:50;14.73;74.63
76291;DHT22;65100;46.884;17.410;2023-04-24T14:15:16;14.61;74.50
76291;DHT22;65100;46.884;17.410;2023-04-24T14:17:41;14.57;75.68
76291;DHT22;65100;46.884;17.410;2023-04-24T14:20:07;14.56;76.20
76291;DHT22;65100;46.884;17.410;2023-04-24T14:22:34;14.48;75.87
76291;DHT22;65100;46.884;17.410;2023-04-24T14:24:59;14.45;76.13
76291;DHT22;65100;46.884;17.410;2023-04-24T14:27:25;14.41;76.49
76291;DHT22;65100;46.884;17.410;2023-04-24T14:29:52;14.43;76.16
76291;DHT22;65100;46.884;17.410;2023-04-24T14:32:17;14.34;76.73
76291;DHT22;65100;46.884;17.410;2023-04-24T14:34:43;14.34;76.98
76291;DHT22;65100;46.884;17.410;2023-04-24T14:37:08;14.33;76.88
76291;DHT22;65100;46.884;17.410;2023-04-24T14:39:34;14.23;78.13
76291;DHT22;65100;46.884;17.410;2023-04-24T14:42:00;14.23;78.86
76291;DHT22;65100;46.884;17.410;2023-04-24T14:44:26;14.21;79.46
76291;DHT22;65100;46.884;17.410;2023-04-24T14:46:51;14.16;79.87
76291;DHT22;65100;46.884;17.410;2023-04-24T14:49:17;14.17;80.20
76291;DHT22;65100;46.884;17.410;2023-04-24T14:51:42;14.03;79.91
76291;DHT22;65100;46.884;17.410;2023-04-24T14:54:08;14.10;80.52
76291;DHT22;65100;46.884;17.410;2023-04-24T14:56:34;14.13;80.98
76291;DHT22;65100;46.884;17.410;2023-04-24T14:58:59;14.12;80.83
76291;DHT22;65100;46.884;17.410;2023-04-24T15:01:25;14.13;80.81
76291;DHT22;65100;46.884;17.410;2023-04-24T15:03:50;14.08;80.14
76291;DHT22;65100;46.884;17.410;2023-04-24T15:06:15;14.08;80.02
76291;DHT22;65100;46.884;17.410;2023-04-24T15:08:41;14.03;80.69
76291;DHT22;65100;46.884;17.410;2023-04-24T15:11:07;14.05;80.40
76291;DHT22;65100;46.884;17.410;2023-04-24T15:13:34;14.05;81.18
76291;DHT22;65100;46.884;17.410;2023-04-24T15:15:59;13.98;80.61
76291;DHT22;65100;46.884;17.410;2023-04-24T15:18:24;14.02;80.81
76291;DHT22;65100;46.884;17.410;2023-04-24T15:20:50;13.91;81.67
76291;DHT22;65100;46.884;17.410;2023-04-24T15:23:15;13.95;81.55
76291;DHT22;65100;46.884;17.410;2023-04-24T15:25:41;13.93;81.29
76291;DHT22;65100;46.884;17.410;2023-04-24T15:28:06;13.98;81.26
76291;DHT22;65100;46.884;17.410;2023-04-24T15:30:32;13.98;81.59
76291;DHT22;65100;46.884;17.410;2023-04-24T15:32:57;13.93;81.37